Time;durP1;ratioP1;P1;durP2;ratioP2;P2;SDS_P1;SDS_P2;PMS_P1;PMS_P2;Temp;Humidity;BMP_temperature;BMP_pressure;BME280_temperature;BME280_humidity;BME280_pressure;Samples;Min_cycle;Max_cycle;Signal;HPM_P1;HPM_P2
2021/12/23 00:02:04;;;;;;;20.40;13.07;;;;;;;;;;5073661;28;20024;-77
2021/12/23 00:04:30;;;;;;;19.38;12.55;;;;;;;;;;5073296;28;20472;-75
2021/12/23 00:06:56;;;;;;;18.95;13.35;;;;;;;;;;5073606;28;20143;-77
2021/12/23 00:09:30;;;;;;;20.42;13.23;;;;;;;;;;5073549;28;20031;-77
2021/12/23 00:11:56;;;;;;;17.55;11.48;;;;;;;;;;5074020;28;20411;-76
2021/12/23 00:14:22;;;;;;;22.15;12.02;;;;;;;;;;5073397;28;20021;-76
2021/12/23 00:17:06;;;;;;;19.83;10.93;;;;;;;;;;5073140;28;20028;-77
2021/12/23 00:24:46;;;;;;;19.85;12.43;;;;;;;;;;5073137;28;20495;-75
2021/12/23 00:27:12;;;;;;;19.10;11.68;;;;;;;;;;5072740;28;20479;-76
2021/12/23 00:29:39;;;;;;;17.92;12.38;;;;;;;;;;5073092;28;20039;-77
2021/12/23 00:32:07;;;;;;;17.33;11.52;;;;;;;;;;5072709;28;20025;-77
2021/12/23 00:34:34;;;;;;;21.95;11.90;;;;;;;;;;5073044;28;20083;-75
2021/12/23 00:37:01;;;;;;;14.52;10.45;;;;;;;;;;5072742;28;20086;-75
2021/12/23 00:39:29;;;;;;;17.60;10.63;;;;;;;;;;5072916;28;20028;-75
2021/12/23 00:42:04;;;;;;;15.98;9.88;;;;;;;;;;5072512;28;20028;-75
2021/12/23 00:44:30;;;;;;;18.52;10.38;;;;;;;;;;5072950;28;20032;-76
2021/12/23 00:46:56;;;;;;;20.35;11.98;;;;;;;;;;5072511;28;20051;-75
2021/12/23 00:49:23;;;;;;;21.83;12.35;;;;;;;;;;5072775;28;20039;-76
2021/12/23 00:51:49;;;;;;;19.02;13.00;;;;;;;;;;5072724;28;20028;-75
2021/12/23 00:54:15;;;;;;;20.92;12.80;;;;;;;;;;5072563;28;20379;-75
2021/12/23 00:56:47;;;;;;;17.38;11.27;;;;;;;;;;5072686;28;20028;-76
2021/12/23 00:59:14;;;;;;;18.17;10.93;;;;;;;;;;5072734;28;20036;-75
2021/12/23 01:01:42;;;;;;;18.08;11.48;;;;;;;;;;5072523;28;20112;-75
2021/12/23 01:04:08;;;;;;;19.65;11.75;;;;;;;;;;5072456;28;20039;-77
2021/12/23 01:06:35;;;;;;;23.50;16.10;;;;;;;;;;5071315;28;20104;-75
2021/12/23 01:09:01;;;;;;;19.23;11.90;;;;;;;;;;5072116;28;20107;-77
2021/12/23 01:11:28;;;;;;;19.58;13.10;;;;;;;;;;5071131;28;20471;-77
2021/12/23 01:14:26;;;;;;;24.20;15.13;;;;;;;;;;5072001;28;20079;-76
2021/12/23 01:17:22;;;;;;;50.45;23.02;;;;;;;;;;5072145;28;20037;-77
2021/12/23 01:19:40;;;;;;;65.40;29.35;;;;;;;;;;5072460;28;20136;-74
2021/12/23 01:22:06;;;;;;;38.78;18.50;;;;;;;;;;5071971;28;20024;-77
2021/12/23 01:24:33;;;;;;;20.15;12.57;;;;;;;;;;5072115;28;20064;-75
2021/12/23 01:27:00;;;;;;;19.92;12.90;;;;;;;;;;5072922;28;20404;-76
2021/12/23 01:29:29;;;;;;;21.20;12.30;;;;;;;;;;5070816;28;20086;-76
2021/12/23 01:31:56;;;;;;;21.02;11.43;;;;;;;;;;5072084;28;20028;-76
2021/12/23 01:34:24;;;;;;;17.20;11.55;;;;;;;;;;5071768;28;20033;-76
2021/12/23 01:36:50;;;;;;;18.98;10.85;;;;;;;;;;5072252;28;20399;-75
2021/12/23 01:39:16;;;;;;;18.65;12.40;;;;;;;;;;5071335;28;20037;-76
2021/12/23 01:41:42;;;;;;;18.17;12.38;;;;;;;;;;5072110;28;20025;-76
2021/12/23 01:44:09;;;;;;;18.38;13.70;;;;;;;;;;5070555;28;20029;-76
2021/12/23 01:46:35;;;;;;;58.85;22.08;;;;;;;;;;5071950;28;20024;-76
2021/12/23 01:49:01;;;;;;;42.30;19.20;;;;;;;;;;5071974;28;20029;-76
2021/12/23 01:51:27;;;;;;;46.95;20.73;;;;;;;;;;5071681;28;20474;-74
2021/12/23 01:53:53;;;;;;;39.15;17.33;;;;;;;;;;5071972;28;20024;-75
2021/12/23 01:56:19;;;;;;;32.28;17.70;;;;;;;;;;5071590;28;20040;-75
2021/12/23 01:58:46;;;;;;;31.90;15.63;;;;;;;;;;5072048;28;20055;-76
2021/12/23 02:01:12;;;;;;;27.70;14.85;;;;;;;;;;5071604;28;20032;-76
2021/12/23 02:03:41;;;;;;;27.27;15.90;;;;;;;;;;5071690;28;20033;-76
2021/12/23 02:06:07;;;;;;;18.88;13.20;;;;;;;;;;5071835;28;20020;-75
2021/12/23 02:08:38;;;;;;;20.88;12.60;;;;;;;;;;5071718;28;20029;-75
2021/12/23 02:11:06;;;;;;;30.55;15.18;;;;;;;;;;5071729;28;20021;-77
2021/12/23 02:13:34;;;;;;;19.40;12.02;;;;;;;;;;5071555;28;20089;-75
2021/12/23 02:16:00;;;;;;;20.85;13.40;;;;;;;;;;5071591;28;20037;-77
2021/12/23 02:18:26;;;;;;;22.90;13.00;;;;;;;;;;5071332;28;20031;-76
2021/12/23 02:20:53;;;;;;;18.13;11.95;;;;;;;;;;5071788;28;20070;-75
2021/12/23 02:23:19;;;;;;;20.90;11.95;;;;;;;;;;5071092;28;20056;-75
2021/12/23 02:25:46;;;;;;;19.17;11.85;;;;;;;;;;5071772;28;20036;-76
2021/12/23 02:28:30;;;;;;;18.00;12.02;;;;;;;;;;5071485;28;20107;-77
2021/12/23 02:30:56;;;;;;;16.60;10.85;;;;;;;;;;5071329;28;20116;-76
2021/12/23 02:33:24;;;;;;;18.75;12.40;;;;;;;;;;5071343;28;20036;-75
2021/12/23 02:35:51;;;;;;;20.40;14.27;;;;;;;;;;5070171;28;20037;-76
2021/12/23 02:38:17;;;;;;;29.45;15.95;;;;;;;;;;5070063;28;20064;-77
2021/12/23 02:40:44;;;;;;;21.45;15.38;;;;;;;;;;5071539;28;20480;-75
2021/12/23 02:43:14;;;;;;;23.98;14.55;;;;;;;;;;5071191;28;20021;-75
2021/12/23 02:45:41;;;;;;;21.33;14.15;;;;;;;;;;5071553;28;20070;-76
2021/12/23 02:48:11;;;;;;;24.48;15.35;;;;;;;;;;5071153;28;20082;-74
2021/12/23 02:50:38;;;;;;;25.42;17.00;;;;;;;;;;5073420;28;20028;-76
2021/12/23 02:53:04;;;;;;;25.45;16.33;;;;;;;;;;5074629;28;20021;-76
2021/12/23 02:55:32;;;;;;;23.20;14.27;;;;;;;;;;5074829;28;20044;-76
2021/12/23 02:57:58;;;;;;;18.58;13.10;;;;;;;;;;5073280;28;20038;-75
2021/12/23 03:00:24;;;;;;;20.48;13.68;;;;;;;;;;5074769;28;20463;-74
2021/12/23 03:02:50;;;;;;;19.00;12.98;;;;;;;;;;5074103;28;20028;-74
2021/12/23 03:05:17;;;;;;;24.40;14.45;;;;;;;;;;5073889;28;20027;-76
2021/12/23 03:07:44;;;;;;;21.60;13.30;;;;;;;;;;5073086;28;20025;-76
2021/12/23 03:10:10;;;;;;;20.05;13.52;;;;;;;;;;5074358;28;20468;-76
2021/12/23 03:12:37;;;;;;;22.63;13.95;;;;;;;;;;5074797;28;20552;-75
2021/12/23 03:15:04;;;;;;;18.65;13.10;;;;;;;;;;5074366;28;20505;-77
2021/12/23 03:17:31;;;;;;;15.50;11.50;;;;;;;;;;5074526;28;20038;-75
2021/12/23 03:22:44;;;;;;;20.77;12.15;;;;;;;;;;5074430;28;20612;-76
2021/12/23 03:25:10;;;;;;;18.40;11.40;;;;;;;;;;5073753;28;20056;-75
2021/12/23 03:27:36;;;;;;;16.45;11.57;;;;;;;;;;5074440;28;20032;-76
2021/12/23 03:30:05;;;;;;;16.33;11.27;;;;;;;;;;5074004;28;20024;-75
2021/12/23 03:32:31;;;;;;;17.42;12.55;;;;;;;;;;5074386;28;20036;-74
2021/12/23 03:35:00;;;;;;;19.30;12.75;;;;;;;;;;5073695;28;20048;-76
2021/12/23 03:37:26;;;;;;;17.95;13.60;;;;;;;;;;5072932;28;20033;-77
2021/12/23 03:39:53;;;;;;;19.10;12.88;;;;;;;;;;5073228;28;20013;-77
2021/12/23 03:42:19;;;;;;;17.50;11.80;;;;;;;;;;5073246;28;20021;-75
2021/12/23 03:44:46;;;;;;;17.60;12.30;;;;;;;;;;5072061;28;20459;-75
2021/12/23 03:47:12;;;;;;;26.98;17.60;;;;;;;;;;5069086;28;20027;-74
2021/12/23 03:49:38;;;;;;;50.70;28.25;;;;;;;;;;5073300;28;20542;-74
2021/12/23 03:52:04;;;;;;;51.70;32.45;;;;;;;;;;5072307;28;20051;-76
2021/12/23 03:54:30;;;;;;;30.50;19.67;;;;;;;;;;5072147;28;20033;-77
2021/12/23 03:56:59;;;;;;;33.22;19.75;;;;;;;;;;5068555;28;20021;-75
2021/12/23 03:59:27;;;;;;;29.30;17.73;;;;;;;;;;5072467;28;20035;-74
2021/12/23 04:01:53;;;;;;;40.22;23.15;;;;;;;;;;5071882;28;20028;-74
2021/12/23 04:04:23;;;;;;;40.67;22.30;;;;;;;;;;5072393;28;20472;-75
2021/12/23 04:06:51;;;;;;;36.72;21.85;;;;;;;;;;5071512;28;20032;-75
2021/12/23 04:09:18;;;;;;;32.50;19.92;;;;;;;;;;5070883;28;20048;-75
2021/12/23 04:11:44;;;;;;;30.98;20.30;;;;;;;;;;5070779;28;20090;-75
2021/12/23 04:14:10;;;;;;;27.77;18.20;;;;;;;;;;5071784;28;20032;-75
2021/12/23 04:16:39;;;;;;;32.10;19.00;;;;;;;;;;5071938;28;20025;-74
2021/12/23 04:19:08;;;;;;;28.90;18.40;;;;;;;;;;5071651;28;20487;-76
2021/12/23 04:21:34;;;;;;;27.55;16.83;;;;;;;;;;5070143;28;20025;-75
2021/12/23 04:24:01;;;;;;;34.60;21.70;;;;;;;;;;5071662;28;20049;-75
2021/12/23 04:26:27;;;;;;;46.50;26.30;;;;;;;;;;5072577;28;20023;-75
2021/12/23 04:28:54;;;;;;;41.47;24.90;;;;;;;;;;5072094;28;20048;-76
2021/12/23 04:31:21;;;;;;;43.30;26.83;;;;;;;;;;5071490;28;20058;-75
2021/12/23 04:33:48;;;;;;;51.42;30.35;;;;;;;;;;5072796;28;20085;-76
2021/12/23 04:36:14;;;;;;;69.90;39.60;;;;;;;;;;5071271;28;20119;-76
2021/12/23 04:38:41;;;;;;;53.08;32.08;;;;;;;;;;5072010;28;20093;-75
2021/12/23 04:41:07;;;;;;;48.70;28.60;;;;;;;;;;5072449;28;20535;-76
2021/12/23 04:43:34;;;;;;;44.53;26.33;;;;;;;;;;5072551;28;20066;-76
2021/12/23 04:46:00;;;;;;;34.17;20.88;;;;;;;;;;5072257;28;20146;-75
2021/12/23 04:48:26;;;;;;;31.95;21.17;;;;;;;;;;5072304;28;20048;-74
2021/12/23 04:50:52;;;;;;;33.50;22.88;;;;;;;;;;5072545;28;20024;-75
2021/12/23 04:53:18;;;;;;;40.00;28.15;;;;;;;;;;5072456;28;20029;-75
2021/12/23 04:55:48;;;;;;;38.45;26.90;;;;;;;;;;5072510;28;20480;-74
2021/12/23 04:58:14;;;;;;;26.15;17.80;;;;;;;;;;5072215;28;20035;-75
2021/12/23 05:00:42;;;;;;;22.63;15.60;;;;;;;;;;5072578;28;20055;-74
2021/12/23 05:03:09;;;;;;;30.08;18.48;;;;;;;;;;5072201;28;20123;-75
2021/12/23 05:05:35;;;;;;;38.35;24.67;;;;;;;;;;5072401;28;20028;-76
2021/12/23 05:08:01;;;;;;;36.95;23.63;;;;;;;;;;5071845;28;20028;-76
2021/12/23 05:10:27;;;;;;;36.65;25.95;;;;;;;;;;5071977;28;20376;-74
2021/12/23 05:12:53;;;;;;;50.40;30.10;;;;;;;;;;5071451;28;20058;-77
2021/12/23 05:15:20;;;;;;;77.75;41.03;;;;;;;;;;5070581;28;20115;-76
2021/12/23 05:17:47;;;;;;;98.13;52.40;;;;;;;;;;5072117;28;20029;-75
2021/12/23 05:20:18;;;;;;;79.15;44.38;;;;;;;;;;5071938;28;20024;-76
2021/12/23 05:22:47;;;;;;;65.03;37.70;;;;;;;;;;5072127;28;20033;-75
2021/12/23 05:25:13;;;;;;;49.85;30.60;;;;;;;;;;5071863;28;20048;-76
2021/12/23 05:27:40;;;;;;;48.35;30.73;;;;;;;;;;5070830;28;20070;-75
2021/12/23 05:30:08;;;;;;;65.55;37.90;;;;;;;;;;5071801;28;20029;-75
2021/12/23 05:32:34;;;;;;;103.47;52.55;;;;;;;;;;5071847;28;20020;-74
2021/12/23 05:35:00;;;;;;;67.47;39.83;;;;;;;;;;5071731;28;20409;-74
2021/12/23 05:37:26;;;;;;;70.72;40.75;;;;;;;;;;5072010;28;20039;-76
2021/12/23 05:39:52;;;;;;;88.47;51.45;;;;;;;;;;5071938;28;20063;-76
2021/12/23 05:42:18;;;;;;;44.38;28.15;;;;;;;;;;5070308;28;20123;-74
2021/12/23 05:44:44;;;;;;;45.28;24.27;;;;;;;;;;5071932;28;20462;-76
2021/12/23 05:47:10;;;;;;;39.33;23.77;;;;;;;;;;5070436;28;20434;-75
2021/12/23 05:49:39;;;;;;;48.88;29.75;;;;;;;;;;5070724;28;20027;-76
2021/12/23 05:52:05;;;;;;;36.80;20.27;;;;;;;;;;5071611;28;20099;-76
2021/12/23 05:54:31;;;;;;;36.10;21.73;;;;;;;;;;5071756;28;20048;-74
2021/12/23 05:57:01;;;;;;;31.63;20.55;;;;;;;;;;5071891;28;20082;-75
2021/12/23 05:59:29;;;;;;;29.80;19.50;;;;;;;;;;5071747;28;20472;-76
2021/12/23 06:01:55;;;;;;;32.10;20.40;;;;;;;;;;5071754;28;20544;-76
2021/12/23 06:04:21;;;;;;;35.55;21.27;;;;;;;;;;5070253;28;20081;-74
2021/12/23 06:06:47;;;;;;;35.85;21.67;;;;;;;;;;5071667;28;20103;-75
2021/12/23 06:09:13;;;;;;;108.13;59.45;;;;;;;;;;5071442;28;20433;-76
2021/12/23 06:11:39;;;;;;;108.00;57.90;;;;;;;;;;5071797;28;20851;-75
2021/12/23 06:14:08;;;;;;;116.40;60.08;;;;;;;;;;5070053;28;20033;-76
2021/12/23 06:16:37;;;;;;;113.80;68.85;;;;;;;;;;5070409;28;20797;-76
2021/12/23 06:19:03;;;;;;;99.82;57.50;;;;;;;;;;5070385;28;20448;-76
2021/12/23 06:21:31;;;;;;;96.95;54.63;;;;;;;;;;5069959;28;20028;-76
2021/12/23 06:24:03;;;;;;;108.20;61.78;;;;;;;;;;5066812;28;20360;-79
2021/12/23 06:26:29;;;;;;;102.03;54.00;;;;;;;;;;5068887;28;20020;-76
2021/12/23 06:28:56;;;;;;;133.65;67.07;;;;;;;;;;5068581;28;20021;-74
2021/12/23 06:31:23;;;;;;;143.05;71.03;;;;;;;;;;5056507;28;20052;-75
2021/12/23 06:33:49;;;;;;;158.40;81.72;;;;;;;;;;5061160;28;20033;-75
2021/12/23 06:36:17;;;;;;;124.63;66.45;;;;;;;;;;5070901;28;20037;-75
2021/12/23 06:38:44;;;;;;;151.30;87.57;;;;;;;;;;5054815;28;20739;-75
2021/12/23 06:41:10;;;;;;;146.93;85.80;;;;;;;;;;5069417;28;20037;-75
2021/12/23 06:43:36;;;;;;;138.43;74.03;;;;;;;;;;5071950;28;20017;-75
2021/12/23 06:46:03;;;;;;;130.23;70.50;;;;;;;;;;5071449;28;20043;-75
2021/12/23 06:48:32;;;;;;;117.20;63.33;;;;;;;;;;5060614;28;20059;-74
2021/12/23 06:50:59;;;;;;;115.90;62.92;;;;;;;;;;5058073;28;20040;-74
2021/12/23 06:53:26;;;;;;;112.18;65.68;;;;;;;;;;5053665;28;20028;-75
2021/12/23 06:55:52;;;;;;;113.60;66.20;;;;;;;;;;5059535;28;20065;-75
2021/12/23 06:58:19;;;;;;;104.63;62.42;;;;;;;;;;5059750;28;20059;-75
2021/12/23 07:00:46;;;;;;;94.78;56.15;;;;;;;;;;5067188;28;20132;-75
2021/12/23 07:03:12;;;;;;;84.22;51.22;;;;;;;;;;5058706;28;20033;-75
2021/12/23 07:05:42;;;;;;;78.50;46.83;;;;;;;;;;5058793;28;20068;-75
2021/12/23 07:08:11;;;;;;;70.70;43.63;;;;;;;;;;5053623;28;20025;-76
2021/12/23 07:10:40;;;;;;;66.05;40.35;;;;;;;;;;5053684;28;20029;-75
2021/12/23 07:13:07;;;;;;;78.57;46.78;;;;;;;;;;5053197;28;20087;-75
2021/12/23 07:15:33;;;;;;;72.13;44.63;;;;;;;;;;5052842;28;20071;-74
2021/12/23 07:18:00;;;;;;;60.10;36.78;;;;;;;;;;5053449;28;20021;-74
2021/12/23 07:20:27;;;;;;;50.60;31.55;;;;;;;;;;5052875;28;20024;-75
2021/12/23 07:22:53;;;;;;;50.83;30.00;;;;;;;;;;5068517;28;20115;-75
2021/12/23 07:25:20;;;;;;;53.83;32.65;;;;;;;;;;5052474;28;20060;-75
2021/12/23 07:27:49;;;;;;;64.60;35.90;;;;;;;;;;5053148;28;20056;-74
2021/12/23 07:30:16;;;;;;;63.30;36.35;;;;;;;;;;5052598;28;20028;-74
2021/12/23 07:32:43;;;;;;;70.05;39.80;;;;;;;;;;5064128;28;20119;-75
2021/12/23 07:35:09;;;;;;;66.40;38.22;;;;;;;;;;5053288;28;20403;-75
2021/12/23 07:37:36;;;;;;;67.50;38.85;;;;;;;;;;5063305;28;20089;-76
2021/12/23 07:40:03;;;;;;;67.20;39.03;;;;;;;;;;5071092;28;20028;-73
2021/12/23 07:42:31;;;;;;;73.53;40.35;;;;;;;;;;5059717;28;20112;-73
2021/12/23 07:44:58;;;;;;;62.00;38.53;;;;;;;;;;5052767;28;20025;-74
2021/12/23 07:47:24;;;;;;;60.08;37.95;;;;;;;;;;5050946;28;20017;-77
2021/12/23 07:49:50;;;;;;;60.40;37.10;;;;;;;;;;5052685;28;20484;-77
2021/12/23 07:52:16;;;;;;;47.47;29.73;;;;;;;;;;5052000;28;20526;-76
2021/12/23 07:54:42;;;;;;;58.60;36.33;;;;;;;;;;5059383;28;20038;-77
2021/12/23 07:57:09;;;;;;;67.63;39.88;;;;;;;;;;5067899;28;20037;-76
2021/12/23 07:59:35;;;;;;;69.32;42.08;;;;;;;;;;5052225;28;20050;-74
2021/12/23 08:02:01;;;;;;;67.88;41.22;;;;;;;;;;5052698;28;20029;-76
2021/12/23 08:04:33;;;;;;;59.83;37.20;;;;;;;;;;5050805;28;20025;-77
2021/12/23 08:07:02;;;;;;;54.72;34.78;;;;;;;;;;5052449;28;20029;-75
2021/12/23 08:09:28;;;;;;;43.08;26.33;;;;;;;;;;5057489;28;20124;-74
2021/12/23 08:11:59;;;;;;;52.22;26.20;;;;;;;;;;5062832;28;20021;-77
2021/12/23 08:14:25;;;;;;;56.30;30.08;;;;;;;;;;5051985;28;20025;-78
2021/12/23 08:17:00;;;;;;;39.35;24.88;;;;;;;;;;5052009;28;20025;-77
2021/12/23 08:19:33;;;;;;;48.40;20.65;;;;;;;;;;5050610;28;20119;-76
2021/12/23 08:21:59;;;;;;;30.95;19.50;;;;;;;;;;5050537;28;20037;-76
2021/12/23 08:24:30;;;;;;;29.63;19.27;;;;;;;;;;5051383;28;20526;-76
2021/12/23 08:27:07;;;;;;;30.25;19.85;;;;;;;;;;5058676;28;20396;-76
2021/12/23 08:29:43;;;;;;;30.35;19.35;;;;;;;;;;5050870;28;20052;-76
2021/12/23 08:32:09;;;;;;;51.22;33.67;;;;;;;;;;5050684;28;20075;-75
2021/12/23 08:34:39;;;;;;;38.75;26.30;;;;;;;;;;5051483;28;20040;-77
2021/12/23 08:37:13;;;;;;;31.85;20.52;;;;;;;;;;5050521;28;20384;-76
2021/12/23 08:39:43;;;;;;;27.20;18.38;;;;;;;;;;5061531;28;20036;-77
2021/12/23 08:42:30;;;;;;;24.13;17.73;;;;;;;;;;5069515;28;20551;-78
2021/12/23 08:45:00;;;;;;;25.92;17.27;;;;;;;;;;5052995;28;20041;-77
2021/12/23 08:47:26;;;;;;;26.98;16.52;;;;;;;;;;5053522;28;20032;-76
2021/12/23 08:49:52;;;;;;;23.65;15.60;;;;;;;;;;5040041;28;20021;-77
2021/12/23 08:52:19;;;;;;;22.58;14.43;;;;;;;;;;5051438;28;20127;-74
2021/12/23 08:54:48;;;;;;;24.15;15.68;;;;;;;;;;5053584;28;20677;-76
2021/12/23 08:57:24;;;;;;;21.02;14.30;;;;;;;;;;5050365;28;20021;-75
2021/12/23 09:00:01;;;;;;;22.40;14.70;;;;;;;;;;5049694;28;20033;-75
2021/12/23 09:02:27;;;;;;;23.10;14.60;;;;;;;;;;5052320;28;20025;-76
2021/12/23 09:04:53;;;;;;;23.42;14.77;;;;;;;;;;5057911;28;20464;-75
2021/12/23 09:07:19;;;;;;;23.15;14.85;;;;;;;;;;5051045;28;20033;-78
2021/12/23 09:09:50;;;;;;;21.00;14.73;;;;;;;;;;5051182;28;20029;-76
2021/12/23 09:12:16;;;;;;;25.15;15.27;;;;;;;;;;5057030;28;20378;-77
2021/12/23 09:14:43;;;;;;;22.38;15.18;;;;;;;;;;5068570;28;20072;-76
2021/12/23 09:17:09;;;;;;;23.73;14.57;;;;;;;;;;5064641;28;20033;-79
2021/12/23 09:19:38;;;;;;;20.67;13.38;;;;;;;;;;5057659;28;20874;-77
2021/12/23 09:22:06;;;;;;;20.77;14.13;;;;;;;;;;5068878;28;20037;-77
2021/12/23 09:24:33;;;;;;;21.42;13.68;;;;;;;;;;5061494;28;20044;-77
2021/12/23 09:27:18;;;;;;;21.00;14.45;;;;;;;;;;5053426;28;20117;-74
2021/12/23 09:34:57;;;;;;;21.00;12.88;;;;;;;;;;5050313;28;20123;-77
2021/12/23 09:37:24;;;;;;;19.60;12.40;;;;;;;;;;5050797;28;20036;-78
2021/12/23 09:39:56;;;;;;;18.05;12.60;;;;;;;;;;5061530;28;20028;-74
2021/12/23 09:42:26;;;;;;;19.13;12.55;;;;;;;;;;5054531;28;20071;-77
2021/12/23 09:44:57;;;;;;;20.20;12.13;;;;;;;;;;5048469;28;20115;-76
2021/12/23 09:47:24;;;;;;;29.00;17.95;;;;;;;;;;5059724;28;20025;-75
2021/12/23 09:49:51;;;;;;;20.13;14.38;;;;;;;;;;5056593;28;20056;-75
2021/12/23 09:52:17;;;;;;;26.88;15.38;;;;;;;;;;5062788;28;20035;-77
2021/12/23 09:54:46;;;;;;;27.75;15.10;;;;;;;;;;5056337;28;20040;-79
2021/12/23 09:57:13;;;;;;;25.25;14.63;;;;;;;;;;5067946;28;20043;-74
2021/12/23 09:59:40;;;;;;;24.27;13.85;;;;;;;;;;5067894;28;20723;-77
2021/12/23 10:02:07;;;;;;;20.38;14.30;;;;;;;;;;5071657;28;20032;-77
2021/12/23 10:04:33;;;;;;;35.63;21.73;;;;;;;;;;5072427;28;20107;-74
2021/12/23 10:06:59;;;;;;;27.80;18.30;;;;;;;;;;5070167;28;20080;-76
2021/12/23 10:31:29;;;;;;;12.57;9.73;;;;;;;;;;5059270;28;20395;-79
2021/12/23 10:37:13;;;;;;;12.63;9.00;;;;;;;;;;5072155;28;20039;-75
2021/12/23 10:37:22;;;;;;;14.95;10.65;;;;;;;;;;5068358;28;20040;-75
2021/12/23 10:40:09;;;;;;;10.70;7.40;;;;;;;;;;5071732;28;20049;-76
2021/12/23 10:42:35;;;;;;;11.52;7.28;;;;;;;;;;5071979;28;20031;-73
2021/12/23 10:45:04;;;;;;;9.45;6.32;;;;;;;;;;5073019;28;20073;-79
2021/12/23 10:47:54;;;;;;;13.13;9.43;;;;;;;;;;5073167;28;20033;-75
2021/12/23 10:50:46;;;;;;;14.13;8.77;;;;;;;;;;5071220;28;20028;-76
2021/12/23 10:53:27;;;;;;;9.88;6.65;;;;;;;;;;5072730;28;20024;-76
2021/12/23 10:59:17;;;;;;;11.77;5.50;;;;;;;;;;5055020;28;20396;-75
2021/12/23 11:02:02;;;;;;;9.70;6.40;;;;;;;;;;5065986;28;20032;-78
2021/12/23 11:04:30;;;;;;;;;;;;;;;;;;5061243;28;20017;-76
2021/12/23 11:07:14;;;;;;;8.95;5.35;;;;;;;;;;5072336;28;20019;-76
2021/12/23 11:37:48;;;;;;;15.93;10.38;;;;;;;;;;5054579;28;20032;-76
2021/12/23 11:40:37;;;;;;;13.48;8.23;;;;;;;;;;5066063;28;20120;-77
2021/12/23 11:45:29;;;;;;;10.00;6.47;;;;;;;;;;5062884;28;20506;-79
2021/12/23 11:47:57;;;;;;;10.57;6.72;;;;;;;;;;5052649;28;20040;-76
2021/12/23 11:50:31;;;;;;;13.10;6.88;;;;;;;;;;5070219;28;20482;-76
2021/12/23 11:52:57;;;;;;;10.47;5.47;;;;;;;;;;5052293;28;20103;-78
2021/12/23 11:55:24;;;;;;;9.55;5.97;;;;;;;;;;5055843;28;20056;-77
2021/12/23 11:57:53;;;;;;;11.20;6.43;;;;;;;;;;5057780;28;20042;-78
2021/12/23 12:00:31;;;;;;;11.43;6.70;;;;;;;;;;5054581;28;20044;-78
2021/12/23 12:03:03;;;;;;;11.07;5.65;;;;;;;;;;5065904;28;20027;-80
2021/12/23 12:05:30;;;;;;;4.93;4.40;;;;;;;;;;5051812;28;20072;-76
2021/12/23 12:08:09;;;;;;;8.73;5.18;;;;;;;;;;5054802;28;20464;-76
2021/12/23 12:10:37;;;;;;;7.30;4.40;;;;;;;;;;5063893;28;20094;-76
2021/12/23 12:13:05;;;;;;;6.15;5.00;;;;;;;;;;5058580;28;20090;-80
2021/12/23 12:15:35;;;;;;;5.85;4.57;;;;;;;;;;5064411;28;20067;-76
2021/12/23 12:18:21;;;;;;;6.47;4.90;;;;;;;;;;5052119;28;20032;-80
2021/12/23 12:23:35;;;;;;;6.80;4.55;;;;;;;;;;5051482;28;20087;-77
2021/12/23 12:26:06;;;;;;;14.85;5.10;;;;;;;;;;5051488;28;20083;-77
2021/12/23 12:28:33;;;;;;;7.88;4.82;;;;;;;;;;5051336;28;20055;-77
2021/12/23 12:31:18;;;;;;;9.43;7.18;;;;;;;;;;5052748;28;20029;-75
2021/12/23 12:34:02;;;;;;;14.02;7.10;;;;;;;;;;5067038;28;20036;-77
2021/12/23 12:36:31;;;;;;;18.38;10.82;;;;;;;;;;5062168;28;20072;-77
2021/12/23 12:39:17;;;;;;;22.35;9.57;;;;;;;;;;5068341;28;20563;-78
2021/12/23 12:41:43;;;;;;;11.82;6.05;;;;;;;;;;5052491;28;20040;-75
2021/12/23 12:44:35;;;;;;;11.95;4.93;;;;;;;;;;5058282;28;20020;-79
2021/12/23 12:47:08;;;;;;;9.50;5.20;;;;;;;;;;5065349;28;20028;-75
2021/12/23 12:49:36;;;;;;;8.23;5.32;;;;;;;;;;5053844;28;20029;-78
2021/12/23 12:52:21;;;;;;;10.80;6.50;;;;;;;;;;5051908;28;20115;-77
2021/12/23 12:55:06;;;;;;;7.20;4.50;;;;;;;;;;5059348;28;20025;-75
2021/12/23 12:57:52;;;;;;;8.65;6.38;;;;;;;;;;5062379;28;20093;-75
2021/12/23 13:00:32;;;;;;;6.88;5.15;;;;;;;;;;5066908;28;20066;-78
2021/12/23 13:03:01;;;;;;;11.00;6.93;;;;;;;;;;5052959;28;20051;-78
2021/12/23 13:05:29;;;;;;;14.88;10.23;;;;;;;;;;5053063;28;20369;-75
2021/12/23 13:07:56;;;;;;;16.15;10.05;;;;;;;;;;5066516;28;20032;-75
2021/12/23 13:10:28;;;;;;;65.55;38.55;;;;;;;;;;5061384;28;20021;-76
2021/12/23 13:12:55;;;;;;;64.00;36.35;;;;;;;;;;5067367;28;20472;-78
2021/12/23 13:15:21;;;;;;;47.58;27.63;;;;;;;;;;5060390;28;20045;-77
2021/12/23 13:18:06;;;;;;;18.15;10.82;;;;;;;;;;5067225;28;20068;-78
2021/12/23 13:20:51;;;;;;;12.63;6.38;;;;;;;;;;5060294;28;20029;-77
2021/12/23 13:23:37;;;;;;;13.93;6.05;;;;;;;;;;5066732;28;20450;-76
2021/12/23 13:26:05;;;;;;;8.23;4.88;;;;;;;;;;5058662;28;20028;-77
2021/12/23 13:28:37;;;;;;;7.63;5.30;;;;;;;;;;5060019;28;20104;-80
2021/12/23 13:31:05;;;;;;;8.32;6.90;;;;;;;;;;5052102;28;20107;-77
2021/12/23 13:33:40;;;;;;;7.25;6.07;;;;;;;;;;5050976;28;20111;-76
2021/12/23 13:36:14;;;;;;;8.35;5.47;;;;;;;;;;5062316;28;20059;-76
2021/12/23 13:38:42;;;;;;;10.93;7.63;;;;;;;;;;5065748;28;20028;-76
2021/12/23 13:41:12;;;;;;;25.50;16.10;;;;;;;;;;5054897;28;20526;-76
2021/12/23 13:43:38;;;;;;;14.57;9.13;;;;;;;;;;5060866;28;20021;-76
2021/12/23 13:46:08;;;;;;;18.30;11.10;;;;;;;;;;5059874;28;20029;-76
2021/12/23 13:48:47;;;;;;;16.77;8.05;;;;;;;;;;5051952;28;20044;-75
2021/12/23 13:51:17;;;;;;;12.57;8.55;;;;;;;;;;5051042;28;20108;-74
2021/12/23 13:53:43;;;;;;;10.63;6.55;;;;;;;;;;5054365;28;20036;-74
2021/12/23 13:56:12;;;;;;;9.02;5.88;;;;;;;;;;5070963;28;20047;-78
2021/12/23 13:58:41;;;;;;;13.95;9.52;;;;;;;;;;5071829;28;20063;-77
2021/12/23 14:01:08;;;;;;;31.48;22.48;;;;;;;;;;5070671;28;20560;-74
2021/12/23 14:03:34;;;;;;;24.83;17.85;;;;;;;;;;5070250;28;20029;-77
2021/12/23 14:06:01;;;;;;;23.55;18.55;;;;;;;;;;5071538;28;20028;-76
2021/12/23 14:08:30;;;;;;;20.48;14.48;;;;;;;;;;5068779;28;20039;-79
2021/12/23 14:10:57;;;;;;;14.38;10.20;;;;;;;;;;5068716;28;20043;-76
2021/12/23 14:13:23;;;;;;;10.82;7.70;;;;;;;;;;5070471;28;20074;-75
2021/12/23 14:15:54;;;;;;;9.85;6.18;;;;;;;;;;5070923;28;20040;-79
2021/12/23 14:23:54;;;;;;;8.48;5.60;;;;;;;;;;5068785;28;20526;-77
2021/12/23 14:26:25;;;;;;;9.30;5.22;;;;;;;;;;5071054;28;20063;-75
2021/12/23 14:28:53;;;;;;;11.27;4.80;;;;;;;;;;5070534;28;20051;-75
2021/12/23 14:31:23;;;;;;;7.53;4.53;;;;;;;;;;5069317;28;20032;-79
2021/12/23 14:33:51;;;;;;;6.63;5.43;;;;;;;;;;5071241;28;20031;-78
2021/12/23 14:36:20;;;;;;;8.68;5.25;;;;;;;;;;5071236;28;20104;-77
2021/12/23 14:38:53;;;;;;;8.35;4.97;;;;;;;;;;5070912;28;20460;-78
2021/12/23 14:41:20;;;;;;;17.15;6.90;;;;;;;;;;5071165;28;20042;-79
2021/12/23 14:43:55;;;;;;;14.85;6.05;;;;;;;;;;5071178;28;20460;-78
2021/12/23 14:46:38;;;;;;;17.13;8.18;;;;;;;;;;5074442;28;20047;-77
2021/12/23 14:51:34;;;;;;;27.30;15.75;;;;;;;;;;5074743;28;20035;-76
2021/12/23 14:54:11;;;;;;;24.00;14.95;;;;;;;;;;5075060;28;20104;-77
2021/12/23 14:56:38;;;;;;;47.53;17.65;;;;;;;;;;5074904;28;20547;-79
2021/12/23 14:59:07;;;;;;;56.85;29.90;;;;;;;;;;5074381;28;20035;-77
2021/12/23 15:01:33;;;;;;;52.33;32.50;;;;;;;;;;5074713;28;20067;-77
2021/12/23 15:04:03;;;;;;;50.30;34.13;;;;;;;;;;5073861;28;20083;-76
2021/12/23 15:06:30;;;;;;;54.63;36.63;;;;;;;;;;5072897;28;20025;-79
2021/12/23 15:08:56;;;;;;;50.03;35.47;;;;;;;;;;5074764;28;20104;-77
2021/12/23 15:11:29;;;;;;;50.42;38.38;;;;;;;;;;5073076;28;20035;-81
2021/12/23 15:13:56;;;;;;;59.30;42.67;;;;;;;;;;5073238;28;20063;-78
2021/12/23 15:16:24;;;;;;;51.47;40.78;;;;;;;;;;5074294;28;20297;-80
2021/12/23 15:21:49;;;;;;;129.40;72.38;;;;;;;;;;5074208;28;20100;-77
2021/12/23 15:24:19;;;;;;;137.38;77.25;;;;;;;;;;5074116;28;20056;-77
2021/12/23 15:26:53;;;;;;;163.52;98.07;;;;;;;;;;5073991;28;20025;-78
2021/12/23 15:29:20;;;;;;;136.90;83.32;;;;;;;;;;5072354;28;20032;-76
2021/12/23 15:32:11;;;;;;;96.80;62.17;;;;;;;;;;5071972;28;20036;-79
2021/12/23 15:34:45;;;;;;;93.72;67.90;;;;;;;;;;5071497;28;20120;-76
2021/12/23 15:37:11;;;;;;;92.20;66.85;;;;;;;;;;5070339;28;20031;-77
2021/12/23 15:39:38;;;;;;;109.07;76.65;;;;;;;;;;5071176;28;20458;-77
2021/12/23 15:42:06;;;;;;;135.23;86.13;;;;;;;;;;5073533;28;20032;-75
2021/12/23 15:44:34;;;;;;;153.70;97.03;;;;;;;;;;5070371;28;20472;-79
2021/12/23 15:47:02;;;;;;;176.57;121.85;;;;;;;;;;5072675;28;20029;-76
2021/12/23 15:49:28;;;;;;;171.00;114.45;;;;;;;;;;5073272;28;20332;-79
2021/12/23 15:51:55;;;;;;;186.40;122.85;;;;;;;;;;5072361;28;20545;-76
2021/12/23 15:54:22;;;;;;;149.38;97.28;;;;;;;;;;5072476;28;20158;-79